sensor_id;sensor_type;location;lat;lon;timestamp;P1;durP1;ratioP1;P2;durP2;ratioP2
48042;SDS011;33988;47.992;8.820;2023-04-25T00:01:31;2.33;;;1.40;;
48042;SDS011;33988;47.992;8.820;2023-04-25T00:03:59;3.40;;;1.48;;
48042;SDS011;33988;47.992;8.820;2023-04-25T00:06:28;3.53;;;1.60;;
48042;SDS011;33988;47.992;8.820;2023-04-25T00:08:56;4.00;;;1.80;;
48042;SDS011;33988;47.992;8.820;2023-04-25T00:11:25;2.95;;;1.50;;
48042;SDS011;33988;47.992;8.820;2023-04-25T00:13:57;1.58;;;1.23;;
48042;SDS011;33988;47.992;8.820;2023-04-25T00:16:25;2.30;;;1.38;;
48042;SDS011;33988;47.992;8.820;2023-04-25T00:18:56;1.40;;;1.20;;
48042;SDS011;33988;47.992;8.820;2023-04-25T00:21:24;3.30;;;1.50;;
48042;SDS011;33988;47.992;8.820;2023-04-25T00:23:55;2.95;;;1.60;;
48042;SDS011;33988;47.992;8.820;2023-04-25T00:26:22;3.80;;;1.58;;
48042;SDS011;33988;47.992;8.820;2023-04-25T00:28:49;4.07;;;1.90;;
48042;SDS011;33988;47.992;8.820;2023-04-25T00:31:16;4.53;;;1.40;;
48042;SDS011;33988;47.992;8.820;2023-04-25T00:33:45;2.17;;;1.13;;
48042;SDS011;33988;47.992;8.820;2023-04-25T00:36:15;3.20;;;1.55;;
48042;SDS011;33988;47.992;8.820;2023-04-25T00:38:43;3.90;;;1.40;;
48042;SDS011;33988;47.992;8.820;2023-04-25T00:41:12;3.47;;;1.42;;
48042;SDS011;33988;47.992;8.820;2023-04-25T00:43:39;3.38;;;1.58;;
48042;SDS011;33988;47.992;8.820;2023-04-25T00:46:07;2.60;;;1.40;;
48042;SDS011;33988;47.992;8.820;2023-04-25T00:48:34;1.63;;;1.08;;
48042;SDS011;33988;47.992;8.820;2023-04-25T00:51:01;2.45;;;1.20;;
48042;SDS011;33988;47.992;8.820;2023-04-25T00:53:28;3.60;;;1.20;;
48042;SDS011;33988;47.992;8.820;2023-04-25T00:55:58;2.53;;;1.20;;
48042;SDS011;33988;47.992;8.820;2023-04-25T00:58:25;1.40;;;1.30;;
48042;SDS011;33988;47.992;8.820;2023-04-25T01:00:54;4.72;;;1.40;;
48042;SDS011;33988;47.992;8.820;2023-04-25T01:03:23;3.40;;;1.23;;
48042;SDS011;33988;47.992;8.820;2023-04-25T01:05:51;1.50;;;1.27;;
48042;SDS011;33988;47.992;8.820;2023-04-25T01:08:18;1.70;;;1.30;;
48042;SDS011;33988;47.992;8.820;2023-04-25T01:10:48;2.08;;;1.35;;
48042;SDS011;33988;47.992;8.820;2023-04-25T01:13:15;1.80;;;1.20;;
48042;SDS011;33988;47.992;8.820;2023-04-25T01:15:45;2.92;;;1.38;;
48042;SDS011;33988;47.992;8.820;2023-04-25T01:18:17;3.70;;;1.30;;
48042;SDS011;33988;47.992;8.820;2023-04-25T01:23:13;2.28;;;1.17;;
48042;SDS011;33988;47.992;8.820;2023-04-25T01:25:41;1.63;;;1.20;;
48042;SDS011;33988;47.992;8.820;2023-04-25T01:28:08;2.65;;;1.33;;
48042;SDS011;33988;47.992;8.820;2023-04-25T01:30:37;5.05;;;1.52;;
48042;SDS011;33988;47.992;8.820;2023-04-25T01:33:09;5.13;;;1.30;;
48042;SDS011;33988;47.992;8.820;2023-04-25T01:35:37;1.70;;;1.20;;
48042;SDS011;33988;47.992;8.820;2023-04-25T01:38:04;2.53;;;1.35;;
48042;SDS011;33988;47.992;8.820;2023-04-25T01:40:33;2.92;;;1.80;;
48042;SDS011;33988;47.992;8.820;2023-04-25T01:43:03;3.28;;;1.20;;
48042;SDS011;33988;47.992;8.820;2023-04-25T01:45:32;3.03;;;1.30;;
48042;SDS011;33988;47.992;8.820;2023-04-25T01:48:02;0.80;;;0.68;;
48042;SDS011;33988;47.992;8.820;2023-04-25T01:50:32;1.38;;;0.80;;
48042;SDS011;33988;47.992;8.820;2023-04-25T01:52:59;1.60;;;1.02;;
48042;SDS011;33988;47.992;8.820;2023-04-25T01:55:28;1.20;;;1.10;;
48042;SDS011;33988;47.992;8.820;2023-04-25T01:57:55;0.90;;;0.80;;
48042;SDS011;33988;47.992;8.820;2023-04-25T02:00:25;0.80;;;0.80;;
48042;SDS011;33988;47.992;8.820;2023-04-25T02:02:52;1.10;;;1.00;;
48042;SDS011;33988;47.992;8.820;2023-04-25T02:05:19;1.65;;;0.85;;
48042;SDS011;33988;47.992;8.820;2023-04-25T02:07:47;1.67;;;0.90;;
48042;SDS011;33988;47.992;8.820;2023-04-25T02:10:14;1.77;;;1.10;;
48042;SDS011;33988;47.992;8.820;2023-04-25T02:12:41;1.75;;;1.00;;
48042;SDS011;33988;47.992;8.820;2023-04-25T02:15:10;1.23;;;1.00;;
48042;SDS011;33988;47.992;8.820;2023-04-25T02:17:40;1.75;;;1.00;;
48042;SDS011;33988;47.992;8.820;2023-04-25T02:20:07;1.23;;;0.98;;
48042;SDS011;33988;47.992;8.820;2023-04-25T02:22:36;2.03;;;1.10;;
48042;SDS011;33988;47.992;8.820;2023-04-25T02:25:05;1.98;;;1.00;;
48042;SDS011;33988;47.992;8.820;2023-04-25T02:27:33;2.10;;;0.85;;
48042;SDS011;33988;47.992;8.820;2023-04-25T02:30:00;1.13;;;1.00;;
48042;SDS011;33988;47.992;8.820;2023-04-25T02:32:27;2.83;;;0.85;;
48042;SDS011;33988;47.992;8.820;2023-04-25T02:34:54;3.95;;;1.23;;
48042;SDS011;33988;47.992;8.820;2023-04-25T02:37:24;1.63;;;1.05;;
48042;SDS011;33988;47.992;8.820;2023-04-25T02:39:51;1.65;;;1.05;;
48042;SDS011;33988;47.992;8.820;2023-04-25T02:42:18;2.58;;;1.00;;
48042;SDS011;33988;47.992;8.820;2023-04-25T02:44:45;1.40;;;1.23;;
48042;SDS011;33988;47.992;8.820;2023-04-25T02:47:12;1.35;;;1.00;;
48042;SDS011;33988;47.992;8.820;2023-04-25T02:49:39;1.88;;;1.15;;
48042;SDS011;33988;47.992;8.820;2023-04-25T02:52:06;2.72;;;1.23;;
48042;SDS011;33988;47.992;8.820;2023-04-25T02:54:35;1.67;;;1.02;;
48042;SDS011;33988;47.992;8.820;2023-04-25T02:57:02;3.63;;;1.30;;
48042;SDS011;33988;47.992;8.820;2023-04-25T02:59:31;1.77;;;1.02;;
48042;SDS011;33988;47.992;8.820;2023-04-25T03:01:58;1.98;;;1.08;;
48042;SDS011;33988;47.992;8.820;2023-04-25T03:04:28;1.92;;;1.30;;
48042;SDS011;33988;47.992;8.820;2023-04-25T03:06:55;3.15;;;1.63;;
48042;SDS011;33988;47.992;8.820;2023-04-25T03:09:24;1.10;;;1.00;;
48042;SDS011;33988;47.992;8.820;2023-04-25T03:11:51;2.10;;;1.25;;
48042;SDS011;33988;47.992;8.820;2023-04-25T03:14:18;1.70;;;1.33;;
48042;SDS011;33988;47.992;8.820;2023-04-25T03:16:47;2.58;;;1.17;;
48042;SDS011;33988;47.992;8.820;2023-04-25T03:21:44;1.75;;;1.00;;
48042;SDS011;33988;47.992;8.820;2023-04-25T03:24:11;4.30;;;1.23;;
48042;SDS011;33988;47.992;8.820;2023-04-25T03:26:41;2.42;;;1.23;;
48042;SDS011;33988;47.992;8.820;2023-04-25T03:29:08;1.25;;;0.98;;
48042;SDS011;33988;47.992;8.820;2023-04-25T03:31:37;1.25;;;1.15;;
48042;SDS011;33988;47.992;8.820;2023-04-25T03:34:07;3.20;;;1.48;;
48042;SDS011;33988;47.992;8.820;2023-04-25T03:36:34;1.40;;;1.20;;
48042;SDS011;33988;47.992;8.820;2023-04-25T03:39:06;2.55;;;1.10;;
48042;SDS011;33988;47.992;8.820;2023-04-25T03:41:35;2.90;;;1.20;;
48042;SDS011;33988;47.992;8.820;2023-04-25T03:44:02;1.60;;;1.30;;
48042;SDS011;33988;47.992;8.820;2023-04-25T03:46:29;1.60;;;1.13;;
48042;SDS011;33988;47.992;8.820;2023-04-25T03:48:59;1.50;;;1.10;;
48042;SDS011;33988;47.992;8.820;2023-04-25T03:51:28;1.27;;;1.00;;
48042;SDS011;33988;47.992;8.820;2023-04-25T03:53:57;1.75;;;1.20;;
48042;SDS011;33988;47.992;8.820;2023-04-25T03:56:27;4.40;;;1.20;;
48042;SDS011;33988;47.992;8.820;2023-04-25T03:58:54;2.42;;;1.20;;
48042;SDS011;33988;47.992;8.820;2023-04-25T04:01:24;2.53;;;1.27;;
48042;SDS011;33988;47.992;8.820;2023-04-25T04:03:53;1.20;;;1.10;;
48042;SDS011;33988;47.992;8.820;2023-04-25T04:06:23;1.70;;;1.40;;
48042;SDS011;33988;47.992;8.820;2023-04-25T04:08:53;3.33;;;1.13;;
48042;SDS011;33988;47.992;8.820;2023-04-25T04:11:20;2.10;;;1.27;;
48042;SDS011;33988;47.992;8.820;2023-04-25T04:13:49;3.72;;;1.20;;
48042;SDS011;33988;47.992;8.820;2023-04-25T04:16:16;2.38;;;1.40;;
48042;SDS011;33988;47.992;8.820;2023-04-25T04:18:44;3.85;;;1.05;;
48042;SDS011;33988;47.992;8.820;2023-04-25T04:21:12;1.45;;;1.30;;
48042;SDS011;33988;47.992;8.820;2023-04-25T04:23:41;2.47;;;1.48;;
48042;SDS011;33988;47.992;8.820;2023-04-25T04:26:10;1.42;;;1.27;;
48042;SDS011;33988;47.992;8.820;2023-04-25T04:28:37;3.10;;;1.38;;
48042;SDS011;33988;47.992;8.820;2023-04-25T04:31:06;1.88;;;1.35;;
48042;SDS011;33988;47.992;8.820;2023-04-25T04:33:33;2.05;;;1.42;;
48042;SDS011;33988;47.992;8.820;2023-04-25T04:36:00;2.60;;;2.15;;
48042;SDS011;33988;47.992;8.820;2023-04-25T04:38:29;2.95;;;2.30;;
48042;SDS011;33988;47.992;8.820;2023-04-25T04:40:56;2.95;;;2.20;;
48042;SDS011;33988;47.992;8.820;2023-04-25T04:43:25;2.30;;;1.60;;
48042;SDS011;33988;47.992;8.820;2023-04-25T04:45:55;2.35;;;1.48;;
48042;SDS011;33988;47.992;8.820;2023-04-25T04:48:22;2.28;;;1.55;;
48042;SDS011;33988;47.992;8.820;2023-04-25T04:50:49;1.67;;;1.45;;
48042;SDS011;33988;47.992;8.820;2023-04-25T04:53:19;3.17;;;1.25;;
48042;SDS011;33988;47.992;8.820;2023-04-25T04:55:46;2.78;;;1.45;;
48042;SDS011;33988;47.992;8.820;2023-04-25T04:58:13;1.75;;;1.30;;
48042;SDS011;33988;47.992;8.820;2023-04-25T05:00:44;2.72;;;1.70;;
48042;SDS011;33988;47.992;8.820;2023-04-25T05:03:14;2.88;;;1.70;;
48042;SDS011;33988;47.992;8.820;2023-04-25T05:05:41;2.60;;;2.40;;
48042;SDS011;33988;47.992;8.820;2023-04-25T05:08:08;4.25;;;2.30;;
48042;SDS011;33988;47.992;8.820;2023-04-25T05:10:38;3.38;;;2.03;;
48042;SDS011;33988;47.992;8.820;2023-04-25T05:13:04;2.97;;;2.10;;
48042;SDS011;33988;47.992;8.820;2023-04-25T05:15:34;3.13;;;2.17;;
48042;SDS011;33988;47.992;8.820;2023-04-25T05:18:01;4.30;;;2.42;;
48042;SDS011;33988;47.992;8.820;2023-04-25T05:20:31;4.47;;;2.33;;
48042;SDS011;33988;47.992;8.820;2023-04-25T05:22:58;2.10;;;1.85;;
48042;SDS011;33988;47.992;8.820;2023-04-25T05:25:26;3.00;;;1.80;;
48042;SDS011;33988;47.992;8.820;2023-04-25T05:27:53;2.80;;;2.05;;
48042;SDS011;33988;47.992;8.820;2023-04-25T05:30:20;4.32;;;2.33;;
48042;SDS011;33988;47.992;8.820;2023-04-25T05:32:47;2.72;;;1.90;;
48042;SDS011;33988;47.992;8.820;2023-04-25T05:35:14;3.00;;;1.90;;
48042;SDS011;33988;47.992;8.820;2023-04-25T05:37:41;2.63;;;1.75;;
48042;SDS011;33988;47.992;8.820;2023-04-25T05:40:11;1.90;;;1.65;;
48042;SDS011;33988;47.992;8.820;2023-04-25T05:42:38;2.72;;;2.05;;
48042;SDS011;33988;47.992;8.820;2023-04-25T05:45:07;2.53;;;1.80;;
48042;SDS011;33988;47.992;8.820;2023-04-25T05:47:35;2.58;;;1.83;;
48042;SDS011;33988;47.992;8.820;2023-04-25T05:50:01;3.10;;;2.15;;
48042;SDS011;33988;47.992;8.820;2023-04-25T05:52:34;2.88;;;2.20;;
48042;SDS011;33988;47.992;8.820;2023-04-25T05:55:01;3.08;;;2.28;;
48042;SDS011;33988;47.992;8.820;2023-04-25T05:57:28;2.20;;;2.00;;
48042;SDS011;33988;47.992;8.820;2023-04-25T05:59:55;3.30;;;2.40;;
48042;SDS011;33988;47.992;8.820;2023-04-25T06:02:25;5.28;;;2.70;;
48042;SDS011;33988;47.992;8.820;2023-04-25T06:04:52;4.22;;;2.70;;
48042;SDS011;33988;47.992;8.820;2023-04-25T06:07:20;4.63;;;2.22;;
48042;SDS011;33988;47.992;8.820;2023-04-25T06:09:51;4.18;;;2.58;;
48042;SDS011;33988;47.992;8.820;2023-04-25T06:12:19;3.22;;;2.40;;
48042;SDS011;33988;47.992;8.820;2023-04-25T06:14:46;4.05;;;2.33;;
48042;SDS011;33988;47.992;8.820;2023-04-25T06:17:13;4.53;;;2.80;;
48042;SDS011;33988;47.992;8.820;2023-04-25T06:19:40;3.22;;;2.50;;
48042;SDS011;33988;47.992;8.820;2023-04-25T06:22:11;2.80;;;2.00;;
48042;SDS011;33988;47.992;8.820;2023-04-25T06:24:41;2.45;;;1.95;;
48042;SDS011;33988;47.992;8.820;2023-04-25T06:27:10;6.78;;;2.50;;
48042;SDS011;33988;47.992;8.820;2023-04-25T06:29:42;2.92;;;2.10;;
48042;SDS011;33988;47.992;8.820;2023-04-25T06:32:09;2.83;;;2.00;;
48042;SDS011;33988;47.992;8.820;2023-04-25T06:34:40;3.05;;;2.10;;
48042;SDS011;33988;47.992;8.820;2023-04-25T06:37:07;3.15;;;2.25;;
48042;SDS011;33988;47.992;8.820;2023-04-25T06:39:34;3.25;;;2.10;;
48042;SDS011;33988;47.992;8.820;2023-04-25T06:42:03;3.20;;;2.40;;
48042;SDS011;33988;47.992;8.820;2023-04-25T06:44:32;4.97;;;2.83;;
48042;SDS011;33988;47.992;8.820;2023-04-25T06:46:59;9.18;;;4.25;;
48042;SDS011;33988;47.992;8.820;2023-04-25T06:49:26;8.90;;;4.13;;
48042;SDS011;33988;47.992;8.820;2023-04-25T06:51:55;7.22;;;3.10;;
48042;SDS011;33988;47.992;8.820;2023-04-25T06:54:24;4.40;;;2.88;;
48042;SDS011;33988;47.992;8.820;2023-04-25T06:56:55;3.95;;;2.60;;
48042;SDS011;33988;47.992;8.820;2023-04-25T06:59:23;4.57;;;2.63;;
48042;SDS011;33988;47.992;8.820;2023-04-25T07:01:52;3.33;;;2.20;;
48042;SDS011;33988;47.992;8.820;2023-04-25T07:04:19;2.75;;;2.05;;
48042;SDS011;33988;47.992;8.820;2023-04-25T07:06:46;2.97;;;2.35;;
48042;SDS011;33988;47.992;8.820;2023-04-25T07:09:15;5.07;;;2.30;;
48042;SDS011;33988;47.992;8.820;2023-04-25T07:11:42;5.13;;;2.33;;
48042;SDS011;33988;47.992;8.820;2023-04-25T07:14:09;2.42;;;2.00;;
48042;SDS011;33988;47.992;8.820;2023-04-25T07:16:36;3.10;;;2.40;;
48042;SDS011;33988;47.992;8.820;2023-04-25T07:19:06;2.67;;;2.25;;
48042;SDS011;33988;47.992;8.820;2023-04-25T07:21:32;3.08;;;2.17;;
48042;SDS011;33988;47.992;8.820;2023-04-25T07:24:00;13.50;;;3.15;;
48042;SDS011;33988;47.992;8.820;2023-04-25T07:26:27;14.07;;;3.17;;
48042;SDS011;33988;47.992;8.820;2023-04-25T07:28:56;6.93;;;2.90;;
48042;SDS011;33988;47.992;8.820;2023-04-25T07:31:23;3.35;;;2.13;;
48042;SDS011;33988;47.992;8.820;2023-04-25T07:33:50;3.25;;;1.83;;
48042;SDS011;33988;47.992;8.820;2023-04-25T07:36:19;2.38;;;1.63;;
48042;SDS011;33988;47.992;8.820;2023-04-25T07:38:47;1.70;;;1.30;;
48042;SDS011;33988;47.992;8.820;2023-04-25T07:41:14;1.35;;;1.10;;
48042;SDS011;33988;47.992;8.820;2023-04-25T07:43:41;1.30;;;1.10;;
48042;SDS011;33988;47.992;8.820;2023-04-25T07:46:08;3.15;;;1.20;;
48042;SDS011;33988;47.992;8.820;2023-04-25T07:48:37;2.67;;;1.02;;
48042;SDS011;33988;47.992;8.820;2023-04-25T07:51:06;1.55;;;1.10;;
48042;SDS011;33988;47.992;8.820;2023-04-25T07:53:36;0.80;;;0.80;;
48042;SDS011;33988;47.992;8.820;2023-04-25T07:56:06;0.85;;;0.82;;
48042;SDS011;33988;47.992;8.820;2023-04-25T07:58:33;0.75;;;0.70;;
48042;SDS011;33988;47.992;8.820;2023-04-25T08:01:00;1.02;;;0.80;;
48042;SDS011;33988;47.992;8.820;2023-04-25T08:03:29;1.00;;;0.70;;
48042;SDS011;33988;47.992;8.820;2023-04-25T08:05:56;1.02;;;0.77;;
48042;SDS011;33988;47.992;8.820;2023-04-25T08:08:28;1.52;;;0.77;;
48042;SDS011;33988;47.992;8.820;2023-04-25T08:10:57;1.30;;;1.00;;
48042;SDS011;33988;47.992;8.820;2023-04-25T08:13:26;1.05;;;0.90;;
48042;SDS011;33988;47.992;8.820;2023-04-25T08:15:53;0.70;;;0.70;;
48042;SDS011;33988;47.992;8.820;2023-04-25T08:18:21;0.93;;;0.85;;
48042;SDS011;33988;47.992;8.820;2023-04-25T08:20:48;1.83;;;0.98;;
48042;SDS011;33988;47.992;8.820;2023-04-25T08:23:17;1.30;;;0.93;;
48042;SDS011;33988;47.992;8.820;2023-04-25T08:25:44;1.92;;;0.90;;
48042;SDS011;33988;47.992;8.820;2023-04-25T08:28:11;0.50;;;0.50;;
48042;SDS011;33988;47.992;8.820;2023-04-25T08:30:41;0.50;;;0.50;;
48042;SDS011;33988;47.992;8.820;2023-04-25T08:33:09;0.80;;;0.68;;
48042;SDS011;33988;47.992;8.820;2023-04-25T08:35:38;0.43;;;0.40;;
48042;SDS011;33988;47.992;8.820;2023-04-25T08:38:05;0.98;;;0.50;;
48042;SDS011;33988;47.992;8.820;2023-04-25T08:40:34;0.43;;;0.35;;
48042;SDS011;33988;47.992;8.820;2023-04-25T08:43:06;0.30;;;0.30;;
48042;SDS011;33988;47.992;8.820;2023-04-25T08:45:39;0.50;;;0.35;;
48042;SDS011;33988;47.992;8.820;2023-04-25T08:48:08;0.30;;;0.30;;
48042;SDS011;33988;47.992;8.820;2023-04-25T08:50:40;0.60;;;0.50;;
48042;SDS011;33988;47.992;8.820;2023-04-25T08:53:18;0.40;;;0.40;;
48042;SDS011;33988;47.992;8.820;2023-04-25T08:55:56;0.60;;;0.50;;
48042;SDS011;33988;47.992;8.820;2023-04-25T08:58:25;0.40;;;0.40;;
48042;SDS011;33988;47.992;8.820;2023-04-25T09:00:54;0.22;;;0.22;;
48042;SDS011;33988;47.992;8.820;2023-04-25T09:03:24;0.22;;;0.22;;
48042;SDS011;33988;47.992;8.820;2023-04-25T09:05:51;0.20;;;0.20;;
48042;SDS011;33988;47.992;8.820;2023-04-25T09:08:18;0.30;;;0.30;;
48042;SDS011;33988;47.992;8.820;2023-04-25T09:10:46;0.20;;;0.20;;
48042;SDS011;33988;47.992;8.820;2023-04-25T09:13:20;0.30;;;0.30;;
48042;SDS011;33988;47.992;8.820;2023-04-25T09:15:57;0.25;;;0.22;;
48042;SDS011;33988;47.992;8.820;2023-04-25T09:18:28;0.25;;;0.25;;
48042;SDS011;33988;47.992;8.820;2023-04-25T09:21:07;0.30;;;0.30;;
48042;SDS011;33988;47.992;8.820;2023-04-25T09:23:49;0.38;;;0.38;;
48042;SDS011;33988;47.992;8.820;2023-04-25T09:26:19;0.52;;;0.40;;
48042;SDS011;33988;47.992;8.820;2023-04-25T09:28:49;0.70;;;0.60;;
48042;SDS011;33988;47.992;8.820;2023-04-25T09:31:34;0.73;;;0.50;;
48042;SDS011;33988;47.992;8.820;2023-04-25T09:34:06;0.40;;;0.40;;
48042;SDS011;33988;47.992;8.820;2023-04-25T09:36:33;0.57;;;0.55;;
48042;SDS011;33988;47.992;8.820;2023-04-25T09:39:03;0.85;;;0.60;;
48042;SDS011;33988;47.992;8.820;2023-04-25T09:41:41;0.88;;;0.80;;
48042;SDS011;33988;47.992;8.820;2023-04-25T09:44:08;1.02;;;0.80;;
48042;SDS011;33988;47.992;8.820;2023-04-25T09:46:39;0.85;;;0.60;;
48042;SDS011;33988;47.992;8.820;2023-04-25T09:49:08;1.70;;;1.02;;
48042;SDS011;33988;47.992;8.820;2023-04-25T09:51:40;0.73;;;0.70;;
48042;SDS011;33988;47.992;8.820;2023-04-25T09:54:06;1.05;;;0.90;;
48042;SDS011;33988;47.992;8.820;2023-04-25T09:56:35;1.10;;;0.80;;
48042;SDS011;33988;47.992;8.820;2023-04-25T09:59:05;0.40;;;0.40;;
48042;SDS011;33988;47.992;8.820;2023-04-25T10:01:33;0.70;;;0.60;;
48042;SDS011;33988;47.992;8.820;2023-04-25T10:04:04;0.52;;;0.52;;
48042;SDS011;33988;47.992;8.820;2023-04-25T10:06:37;0.68;;;0.50;;
48042;SDS011;33988;47.992;8.820;2023-04-25T10:09:04;0.50;;;0.50;;
48042;SDS011;33988;47.992;8.820;2023-04-25T10:11:34;0.88;;;0.70;;
48042;SDS011;33988;47.992;8.820;2023-04-25T10:14:02;0.50;;;0.50;;
48042;SDS011;33988;47.992;8.820;2023-04-25T10:16:29;0.50;;;0.50;;
48042;SDS011;33988;47.992;8.820;2023-04-25T10:18:57;0.40;;;0.40;;
48042;SDS011;33988;47.992;8.820;2023-04-25T10:21:24;0.73;;;0.60;;
48042;SDS011;33988;47.992;8.820;2023-04-25T10:23:53;0.50;;;0.50;;
48042;SDS011;33988;47.992;8.820;2023-04-25T10:26:23;0.50;;;0.40;;
48042;SDS011;33988;47.992;8.820;2023-04-25T10:28:58;3.80;;;2.05;;
48042;SDS011;33988;47.992;8.820;2023-04-25T10:31:27;1.23;;;0.90;;
48042;SDS011;33988;47.992;8.820;2023-04-25T10:33:57;2.70;;;1.50;;
48042;SDS011;33988;47.992;8.820;2023-04-25T10:36:27;1.58;;;1.00;;
48042;SDS011;33988;47.992;8.820;2023-04-25T10:38:58;0.60;;;0.60;;
48042;SDS011;33988;47.992;8.820;2023-04-25T10:41:47;0.32;;;0.32;;
48042;SDS011;33988;47.992;8.820;2023-04-25T10:44:31;0.30;;;0.30;;
48042;SDS011;33988;47.992;8.820;2023-04-25T10:47:01;0.40;;;0.40;;
48042;SDS011;33988;47.992;8.820;2023-04-25T10:52:14;0.30;;;0.30;;
48042;SDS011;33988;47.992;8.820;2023-04-25T10:57:30;1.70;;;0.68;;
48042;SDS011;33988;47.992;8.820;2023-04-25T11:02:33;0.32;;;0.30;;
48042;SDS011;33988;47.992;8.820;2023-04-25T11:05:04;1.58;;;0.60;;
48042;SDS011;33988;47.992;8.820;2023-04-25T11:07:53;0.73;;;0.40;;
48042;SDS011;33988;47.992;8.820;2023-04-25T11:10:33;0.77;;;0.55;;
48042;SDS011;33988;47.992;8.820;2023-04-25T11:13:06;0.60;;;0.32;;
48042;SDS011;33988;47.992;8.820;2023-04-25T11:15:33;0.30;;;0.30;;
48042;SDS011;33988;47.992;8.820;2023-04-25T11:18:00;2.45;;;0.68;;
48042;SDS011;33988;47.992;8.820;2023-04-25T11:20:27;2.00;;;0.40;;
48042;SDS011;33988;47.992;8.820;2023-04-25T11:22:57;0.25;;;0.22;;
48042;SDS011;33988;47.992;8.820;2023-04-25T11:25:32;0.40;;;0.32;;
48042;SDS011;33988;47.992;8.820;2023-04-25T11:28:02;2.78;;;0.50;;
48042;SDS011;33988;47.992;8.820;2023-04-25T11:30:33;1.05;;;0.60;;
48042;SDS011;33988;47.992;8.820;2023-04-25T11:32:59;0.77;;;0.60;;
48042;SDS011;33988;47.992;8.820;2023-04-25T11:35:28;0.20;;;0.20;;
48042;SDS011;33988;47.992;8.820;2023-04-25T11:37:55;0.20;;;0.20;;
48042;SDS011;33988;47.992;8.820;2023-04-25T11:40:22;3.97;;;0.65;;
48042;SDS011;33988;47.992;8.820;2023-04-25T11:42:52;0.30;;;0.30;;
48042;SDS011;33988;47.992;8.820;2023-04-25T11:45:21;7.38;;;0.98;;
48042;SDS011;33988;47.992;8.820;2023-04-25T11:47:49;1.85;;;0.40;;
48042;SDS011;33988;47.992;8.820;2023-04-25T11:50:19;0.30;;;0.30;;
48042;SDS011;33988;47.992;8.820;2023-04-25T11:52:46;0.52;;;0.50;;
48042;SDS011;33988;47.992;8.820;2023-04-25T11:55:17;0.22;;;0.20;;
48042;SDS011;33988;47.992;8.820;2023-04-25T11:57:47;1.42;;;0.70;;
48042;SDS011;33988;47.992;8.820;2023-04-25T12:00:18;1.10;;;0.60;;
48042;SDS011;33988;47.992;8.820;2023-04-25T12:02:52;1.42;;;0.80;;
48042;SDS011;33988;47.992;8.820;2023-04-25T12:05:27;0.68;;;0.60;;
48042;SDS011;33988;47.992;8.820;2023-04-25T12:08:10;0.60;;;0.60;;
48042;SDS011;33988;47.992;8.820;2023-04-25T12:10:42;1.60;;;1.20;;
48042;SDS011;33988;47.992;8.820;2023-04-25T12:13:21;0.52;;;0.50;;
48042;SDS011;33988;47.992;8.820;2023-04-25T12:15:52;1.35;;;0.40;;
48042;SDS011;33988;47.992;8.820;2023-04-25T12:18:23;0.73;;;0.30;;
48042;SDS011;33988;47.992;8.820;2023-04-25T12:20:53;0.40;;;0.40;;
48042;SDS011;33988;47.992;8.820;2023-04-25T12:23:27;0.40;;;0.40;;
48042;SDS011;33988;47.992;8.820;2023-04-25T12:25:57;0.35;;;0.35;;
48042;SDS011;33988;47.992;8.820;2023-04-25T12:28:24;0.40;;;0.40;;
48042;SDS011;33988;47.992;8.820;2023-04-25T12:33:27;0.45;;;0.45;;
48042;SDS011;33988;47.992;8.820;2023-04-25T12:36:01;0.40;;;0.40;;
48042;SDS011;33988;47.992;8.820;2023-04-25T12:38:38;0.45;;;0.45;;
48042;SDS011;33988;47.992;8.820;2023-04-25T12:41:09;0.98;;;0.57;;
48042;SDS011;33988;47.992;8.820;2023-04-25T12:43:36;0.43;;;0.35;;
48042;SDS011;33988;47.992;8.820;2023-04-25T12:46:05;0.85;;;0.40;;
48042;SDS011;33988;47.992;8.820;2023-04-25T12:48:35;0.75;;;0.55;;
48042;SDS011;33988;47.992;8.820;2023-04-25T12:51:04;0.38;;;0.38;;
48042;SDS011;33988;47.992;8.820;2023-04-25T12:53:31;0.55;;;0.50;;
48042;SDS011;33988;47.992;8.820;2023-04-25T12:56:00;0.60;;;0.52;;
48042;SDS011;33988;47.992;8.820;2023-04-25T12:58:27;0.60;;;0.60;;
48042;SDS011;33988;47.992;8.820;2023-04-25T13:00:54;0.60;;;0.60;;
48042;SDS011;33988;47.992;8.820;2023-04-25T13:03:21;0.70;;;0.70;;
48042;SDS011;33988;47.992;8.820;2023-04-25T13:05:48;0.93;;;0.60;;
48042;SDS011;33988;47.992;8.820;2023-04-25T13:08:20;2.65;;;0.60;;
48042;SDS011;33988;47.992;8.820;2023-04-25T13:10:47;0.93;;;0.45;;
48042;SDS011;33988;47.992;8.820;2023-04-25T13:13:14;0.70;;;0.60;;
48042;SDS011;33988;47.992;8.820;2023-04-25T13:15:42;1.05;;;0.60;;
48042;SDS011;33988;47.992;8.820;2023-04-25T13:18:12;15.05;;;1.20;;
48042;SDS011;33988;47.992;8.820;2023-04-25T13:20:39;0.50;;;0.50;;
48042;SDS011;33988;47.992;8.820;2023-04-25T13:23:06;0.65;;;0.52;;
48042;SDS011;33988;47.992;8.820;2023-04-25T13:25:33;0.95;;;0.52;;
48042;SDS011;33988;47.992;8.820;2023-04-25T13:28:00;2.25;;;0.70;;
48042;SDS011;33988;47.992;8.820;2023-04-25T13:30:28;1.10;;;0.82;;
48042;SDS011;33988;47.992;8.820;2023-04-25T13:32:55;1.00;;;0.80;;
48042;SDS011;33988;47.992;8.820;2023-04-25T13:35:23;0.93;;;0.55;;
48042;SDS011;33988;47.992;8.820;2023-04-25T13:37:52;0.40;;;0.40;;
48042;SDS011;33988;47.992;8.820;2023-04-25T13:40:19;0.57;;;0.57;;
48042;SDS011;33988;47.992;8.820;2023-04-25T13:42:49;0.60;;;0.60;;
48042;SDS011;33988;47.992;8.820;2023-04-25T13:45:17;0.63;;;0.63;;
48042;SDS011;33988;47.992;8.820;2023-04-25T13:47:44;0.50;;;0.50;;
48042;SDS011;33988;47.992;8.820;2023-04-25T13:50:11;1.75;;;0.60;;
48042;SDS011;33988;47.992;8.820;2023-04-25T13:52:40;0.60;;;0.60;;
48042;SDS011;33988;47.992;8.820;2023-04-25T13:55:07;0.52;;;0.52;;
48042;SDS011;33988;47.992;8.820;2023-04-25T13:57:36;0.60;;;0.60;;
48042;SDS011;33988;47.992;8.820;2023-04-25T14:00:06;0.60;;;0.60;;
48042;SDS011;33988;47.992;8.820;2023-04-25T14:02:37;2.28;;;0.70;;
48042;SDS011;33988;47.992;8.820;2023-04-25T14:05:04;0.55;;;0.55;;
48042;SDS011;33988;47.992;8.820;2023-04-25T14:07:33;0.70;;;0.70;;
48042;SDS011;33988;47.992;8.820;2023-04-25T14:10:01;0.50;;;0.50;;
48042;SDS011;33988;47.992;8.820;2023-04-25T14:12:30;1.20;;;1.10;;
48042;SDS011;33988;47.992;8.820;2023-04-25T14:15:01;1.10;;;0.80;;
48042;SDS011;33988;47.992;8.820;2023-04-25T14:17:29;0.75;;;0.65;;
48042;SDS011;33988;47.992;8.820;2023-04-25T14:19:58;1.77;;;0.93;;
48042;SDS011;33988;47.992;8.820;2023-04-25T14:22:27;3.33;;;0.85;;
48042;SDS011;33988;47.992;8.820;2023-04-25T14:24:54;1.42;;;0.80;;
48042;SDS011;33988;47.992;8.820;2023-04-25T14:27:21;1.25;;;0.90;;
48042;SDS011;33988;47.992;8.820;2023-04-25T14:29:48;0.82;;;0.80;;
48042;SDS011;33988;47.992;8.820;2023-04-25T14:32:15;1.00;;;0.70;;
48042;SDS011;33988;47.992;8.820;2023-04-25T14:34:42;0.77;;;0.75;;
48042;SDS011;33988;47.992;8.820;2023-04-25T14:37:11;0.68;;;0.65;;
48042;SDS011;33988;47.992;8.820;2023-04-25T14:39:41;1.00;;;0.70;;
48042;SDS011;33988;47.992;8.820;2023-04-25T14:42:11;0.93;;;0.55;;
48042;SDS011;33988;47.992;8.820;2023-04-25T14:44:38;1.30;;;1.17;;
48042;SDS011;33988;47.992;8.820;2023-04-25T14:47:05;0.90;;;0.90;;
48042;SDS011;33988;47.992;8.820;2023-04-25T14:49:34;2.25;;;1.00;;
48042;SDS011;33988;47.992;8.820;2023-04-25T14:52:04;2.95;;;0.70;;
48042;SDS011;33988;47.992;8.820;2023-04-25T14:54:33;0.90;;;0.85;;
48042;SDS011;33988;47.992;8.820;2023-04-25T14:57:02;1.10;;;1.05;;
48042;SDS011;33988;47.992;8.820;2023-04-25T14:59:29;0.95;;;0.88;;
48042;SDS011;33988;47.992;8.820;2023-04-25T15:01:59;1.63;;;1.00;;
48042;SDS011;33988;47.992;8.820;2023-04-25T15:04:26;1.08;;;0.77;;
48042;SDS011;33988;47.992;8.820;2023-04-25T15:06:53;0.82;;;0.82;;
48042;SDS011;33988;47.992;8.820;2023-04-25T15:09:20;1.25;;;0.70;;
48042;SDS011;33988;47.992;8.820;2023-04-25T15:11:49;0.95;;;0.70;;
48042;SDS011;33988;47.992;8.820;2023-04-25T15:14:17;1.75;;;0.88;;